sensor_id;sensor_type;location;lat;lon;timestamp;pressure;altitude;pressure_sealevel;temperature;humidity
51083;BME280;37131;42.694;23.350;2023-05-22T00:01:14;95250.63;;;12.58;100.00
51083;BME280;37131;42.694;23.350;2023-05-22T00:03:43;95246.00;;;12.65;100.00
51083;BME280;37131;42.694;23.350;2023-05-22T00:06:08;95238.09;;;12.77;100.00
51083;BME280;37131;42.694;23.350;2023-05-22T00:08:35;95250.00;;;12.85;100.00
51083;BME280;37131;42.694;23.350;2023-05-22T00:11:01;95235.72;;;12.92;100.00
51083;BME280;37131;42.694;23.350;2023-05-22T00:13:26;95238.41;;;12.97;100.00
51083;BME280;37131;42.694;23.350;2023-05-22T00:15:51;95243.97;;;13.01;100.00
51083;BME280;37131;42.694;23.350;2023-05-22T00:18:17;95234.13;;;13.08;100.00
51083;BME280;37131;42.694;23.350;2023-05-22T00:20:43;95241.31;;;13.18;100.00
51083;BME280;37131;42.694;23.350;2023-05-22T00:23:10;95240.16;;;13.26;100.00
51083;BME280;37131;42.694;23.350;2023-05-22T00:25:36;95245.97;;;13.33;100.00
51083;BME280;37131;42.694;23.350;2023-05-22T00:28:01;95239.84;;;13.39;100.00
51083;BME280;37131;42.694;23.350;2023-05-22T00:30:26;95242.22;;;13.41;100.00
51083;BME280;37131;42.694;23.350;2023-05-22T00:32:52;95244.34;;;13.44;100.00
51083;BME280;37131;42.694;23.350;2023-05-22T00:35:17;95245.69;;;13.46;100.00
51083;BME280;37131;42.694;23.350;2023-05-22T00:37:42;95245.69;;;13.46;99.83
51083;BME280;37131;42.694;23.350;2023-05-22T00:40:10;95249.00;;;13.42;100.00
51083;BME280;37131;42.694;23.350;2023-05-22T00:42:35;95244.34;;;13.44;99.43
51083;BME280;37131;42.694;23.350;2023-05-22T00:45:01;95250.84;;;13.24;100.00
51083;BME280;37131;42.694;23.350;2023-05-22T00:47:26;95253.94;;;13.38;99.62
51083;BME280;37131;42.694;23.350;2023-05-22T00:49:51;95247.69;;;13.39;99.32
51083;BME280;37131;42.694;23.350;2023-05-22T00:52:17;95247.44;;;13.41;98.87
51083;BME280;37131;42.694;23.350;2023-05-22T00:54:43;95249.19;;;13.35;98.00
51083;BME280;37131;42.694;23.350;2023-05-22T00:57:08;95244.41;;;13.32;99.46
51083;BME280;37131;42.694;23.350;2023-05-22T00:59:34;95250.13;;;13.29;99.94
51083;BME280;37131;42.694;23.350;2023-05-22T01:02:00;95244.75;;;13.36;100.00
51083;BME280;37131;42.694;23.350;2023-05-22T01:04:25;95244.50;;;13.37;99.71
51083;BME280;37131;42.694;23.350;2023-05-22T01:06:51;95212.03;;;13.21;99.58
51083;BME280;37131;42.694;23.350;2023-05-22T01:09:16;95240.97;;;13.31;99.67
51083;BME280;37131;42.694;23.350;2023-05-22T01:14:24;95239.28;;;13.20;100.00
51083;BME280;37131;42.694;23.350;2023-05-22T01:19:45;95249.41;;;13.33;100.00
51083;BME280;37131;42.694;23.350;2023-05-22T01:32:55;95233.31;;;13.25;100.00
51083;BME280;37131;42.694;23.350;2023-05-22T01:35:22;95229.69;;;13.09;100.00
51083;BME280;37131;42.694;23.350;2023-05-22T01:37:48;95234.22;;;12.96;100.00
51083;BME280;37131;42.694;23.350;2023-05-22T01:40:13;95237.31;;;12.93;100.00
51083;BME280;37131;42.694;23.350;2023-05-22T01:42:39;95228.13;;;12.91;100.00
51083;BME280;37131;42.694;23.350;2023-05-22T01:45:07;95226.94;;;12.81;100.00
51083;BME280;37131;42.694;23.350;2023-05-22T01:47:32;95231.28;;;12.76;100.00
51083;BME280;37131;42.694;23.350;2023-05-22T01:49:59;95221.69;;;12.64;100.00
51083;BME280;37131;42.694;23.350;2023-05-22T01:52:35;95235.47;;;12.60;100.00
51083;BME280;37131;42.694;23.350;2023-05-22T01:55:18;95236.50;;;12.59;100.00
51083;BME280;37131;42.694;23.350;2023-05-22T01:57:58;95233.88;;;12.59;100.00
51083;BME280;37131;42.694;23.350;2023-05-22T02:00:26;95231.91;;;12.49;100.00
51083;BME280;37131;42.694;23.350;2023-05-22T02:02:57;95227.34;;;12.44;100.00
51083;BME280;37131;42.694;23.350;2023-05-22T02:05:23;95228.41;;;12.43;100.00
51083;BME280;37131;42.694;23.350;2023-05-22T02:07:50;95228.00;;;12.35;100.00
51083;BME280;37131;42.694;23.350;2023-05-22T02:10:17;95223.47;;;12.30;100.00
51083;BME280;37131;42.694;23.350;2023-05-22T02:12:44;95225.69;;;12.21;100.00
51083;BME280;37131;42.694;23.350;2023-05-22T02:15:09;95228.59;;;12.25;100.00
51083;BME280;37131;42.694;23.350;2023-05-22T02:17:36;95224.88;;;12.21;100.00
51083;BME280;37131;42.694;23.350;2023-05-22T02:20:04;95235.13;;;12.10;100.00
51083;BME280;37131;42.694;23.350;2023-05-22T02:22:30;95230.31;;;12.19;100.00
51083;BME280;37131;42.694;23.350;2023-05-22T02:24:55;95225.72;;;12.09;100.00
51083;BME280;37131;42.694;23.350;2023-05-22T02:27:20;95223.72;;;12.00;100.00
51083;BME280;37131;42.694;23.350;2023-05-22T02:29:46;95231.91;;;11.91;100.00
51083;BME280;37131;42.694;23.350;2023-05-22T02:32:11;95232.50;;;11.82;100.00
51083;BME280;37131;42.694;23.350;2023-05-22T02:34:36;95230.16;;;11.68;100.00
51083;BME280;37131;42.694;23.350;2023-05-22T02:37:01;95230.94;;;11.57;100.00
51083;BME280;37131;42.694;23.350;2023-05-22T02:39:28;95238.34;;;11.36;100.00
51083;BME280;37131;42.694;23.350;2023-05-22T02:41:53;95228.50;;;11.38;100.00
51083;BME280;37131;42.694;23.350;2023-05-22T02:44:18;95229.19;;;11.46;100.00
51083;BME280;37131;42.694;23.350;2023-05-22T02:46:44;95225.66;;;11.40;100.00
51083;BME280;37131;42.694;23.350;2023-05-22T02:49:09;95227.84;;;11.08;100.00
51083;BME280;37131;42.694;23.350;2023-05-22T02:51:35;95224.31;;;11.14;100.00
51083;BME280;37131;42.694;23.350;2023-05-22T02:54:00;95232.13;;;11.02;100.00
51083;BME280;37131;42.694;23.350;2023-05-22T02:56:26;95226.22;;;10.95;100.00
51083;BME280;37131;42.694;23.350;2023-05-22T02:58:53;95227.16;;;10.88;100.00
51083;BME280;37131;42.694;23.350;2023-05-22T03:01:18;95227.81;;;10.84;100.00
51083;BME280;37131;42.694;23.350;2023-05-22T03:03:43;95226.22;;;10.83;100.00
51083;BME280;37131;42.694;23.350;2023-05-22T03:06:08;95230.06;;;10.80;100.00
51083;BME280;37131;42.694;23.350;2023-05-22T03:08:34;95225.22;;;10.84;100.00
51083;BME280;37131;42.694;23.350;2023-05-22T03:11:02;95221.69;;;10.78;100.00
51083;BME280;37131;42.694;23.350;2023-05-22T03:13:27;95219.53;;;10.75;100.00
51083;BME280;37131;42.694;23.350;2023-05-22T03:15:52;95226.78;;;10.73;100.00
51083;BME280;37131;42.694;23.350;2023-05-22T03:18:18;95223.41;;;10.84;100.00
51083;BME280;37131;42.694;23.350;2023-05-22T03:20:43;95229.28;;;10.80;100.00
51083;BME280;37131;42.694;23.350;2023-05-22T03:23:09;95232.47;;;10.82;100.00
51083;BME280;37131;42.694;23.350;2023-05-22T03:25:35;95229.41;;;10.85;100.00
51083;BME280;37131;42.694;23.350;2023-05-22T03:28:00;95222.16;;;10.87;100.00
51083;BME280;37131;42.694;23.350;2023-05-22T03:30:25;95223.53;;;10.90;100.00
51083;BME280;37131;42.694;23.350;2023-05-22T03:32:51;95228.75;;;10.90;100.00
51083;BME280;37131;42.694;23.350;2023-05-22T03:35:17;95225.00;;;10.85;100.00
51083;BME280;37131;42.694;23.350;2023-05-22T03:37:44;95227.94;;;10.89;100.00
51083;BME280;37131;42.694;23.350;2023-05-22T03:40:09;95229.28;;;10.80;100.00
51083;BME280;37131;42.694;23.350;2023-05-22T03:42:34;95228.84;;;10.83;100.00
51083;BME280;37131;42.694;23.350;2023-05-22T03:45:00;95223.94;;;10.86;100.00
51083;BME280;37131;42.694;23.350;2023-05-22T03:47:25;95225.00;;;10.85;100.00
51083;BME280;37131;42.694;23.350;2023-05-22T03:49:50;95228.28;;;10.81;100.00
51083;BME280;37131;42.694;23.350;2023-05-22T03:52:16;95227.91;;;10.77;100.00
51083;BME280;37131;42.694;23.350;2023-05-22T03:54:41;95235.97;;;10.76;100.00
51083;BME280;37131;42.694;23.350;2023-05-22T03:57:06;95237.34;;;10.78;100.00
51083;BME280;37131;42.694;23.350;2023-05-22T03:59:32;95231.00;;;10.86;100.00
51083;BME280;37131;42.694;23.350;2023-05-22T04:01:57;95232.47;;;10.94;100.00
51083;BME280;37131;42.694;23.350;2023-05-22T04:04:25;95241.56;;;11.03;100.00
51083;BME280;37131;42.694;23.350;2023-05-22T04:06:51;95235.66;;;11.08;100.00
51083;BME280;37131;42.694;23.350;2023-05-22T04:09:16;95237.34;;;11.14;100.00
51083;BME280;37131;42.694;23.350;2023-05-22T04:11:42;95242.03;;;11.23;100.00
51083;BME280;37131;42.694;23.350;2023-05-22T04:14:07;95238.13;;;11.26;100.00
51083;BME280;37131;42.694;23.350;2023-05-22T04:16:33;95239.03;;;11.32;100.00
51083;BME280;37131;42.694;23.350;2023-05-22T04:18:58;95245.19;;;11.37;100.00
51083;BME280;37131;42.694;23.350;2023-05-22T04:21:27;95237.00;;;11.46;100.00
51083;BME280;37131;42.694;23.350;2023-05-22T04:23:52;95235.63;;;11.55;100.00
51083;BME280;37131;42.694;23.350;2023-05-22T04:26:18;95247.97;;;11.71;100.00
51083;BME280;37131;42.694;23.350;2023-05-22T04:28:44;95242.75;;;11.71;100.00
51083;BME280;37131;42.694;23.350;2023-05-22T04:31:13;95244.66;;;11.76;100.00
51083;BME280;37131;42.694;23.350;2023-05-22T04:33:38;95240.75;;;11.90;100.00
51083;BME280;37131;42.694;23.350;2023-05-22T04:36:04;95236.88;;;12.05;100.00
51083;BME280;37131;42.694;23.350;2023-05-22T04:38:30;95241.16;;;12.11;100.00
51083;BME280;37131;42.694;23.350;2023-05-22T04:41:00;95245.97;;;12.31;100.00
51083;BME280;37131;42.694;23.350;2023-05-22T04:43:26;95248.28;;;12.44;100.00
51083;BME280;37131;42.694;23.350;2023-05-22T04:45:51;95248.31;;;12.61;100.00
51083;BME280;37131;42.694;23.350;2023-05-22T04:48:18;95244.38;;;12.76;100.00
51083;BME280;37131;42.694;23.350;2023-05-22T04:50:43;95245.72;;;12.95;100.00
51083;BME280;37131;42.694;23.350;2023-05-22T04:53:10;95246.59;;;13.01;100.00
51083;BME280;37131;42.694;23.350;2023-05-22T04:55:36;95242.06;;;12.96;100.00
51083;BME280;37131;42.694;23.350;2023-05-22T04:58:01;95245.16;;;13.10;100.00
51083;BME280;37131;42.694;23.350;2023-05-22T05:00:27;95250.22;;;13.17;100.00
51083;BME280;37131;42.694;23.350;2023-05-22T05:02:52;95245.78;;;13.18;100.00
51083;BME280;37131;42.694;23.350;2023-05-22T05:05:18;95243.09;;;13.12;100.00
51083;BME280;37131;42.694;23.350;2023-05-22T05:07:43;95253.47;;;13.24;100.00
51083;BME280;37131;42.694;23.350;2023-05-22T05:10:08;95247.59;;;13.34;100.00
51083;BME280;37131;42.694;23.350;2023-05-22T05:12:34;95250.97;;;13.51;100.00
51083;BME280;37131;42.694;23.350;2023-05-22T05:14:59;95251.59;;;13.59;100.00
51083;BME280;37131;42.694;23.350;2023-05-22T05:17:25;95247.75;;;13.66;100.00
51083;BME280;37131;42.694;23.350;2023-05-22T05:19:50;95256.19;;;13.91;100.00
51083;BME280;37131;42.694;23.350;2023-05-22T05:22:15;95259.84;;;13.90;100.00
51083;BME280;37131;42.694;23.350;2023-05-22T05:24:40;95250.25;;;14.00;100.00
51083;BME280;37131;42.694;23.350;2023-05-22T05:27:06;95247.47;;;14.07;96.03
51083;BME280;37131;42.694;23.350;2023-05-22T05:29:31;95254.84;;;14.10;95.17
51083;BME280;37131;42.694;23.350;2023-05-22T05:31:56;95258.59;;;14.19;96.21
51083;BME280;37131;42.694;23.350;2023-05-22T05:34:21;95256.03;;;14.25;93.65
51083;BME280;37131;42.694;23.350;2023-05-22T05:36:46;95259.81;;;14.34;94.54
51083;BME280;37131;42.694;23.350;2023-05-22T05:39:12;95259.56;;;14.35;95.08
51083;BME280;37131;42.694;23.350;2023-05-22T05:41:37;95254.34;;;14.41;92.82
51083;BME280;37131;42.694;23.350;2023-05-22T05:44:02;95263.88;;;14.74;86.52
51083;BME280;37131;42.694;23.350;2023-05-22T05:46:28;95260.22;;;14.75;87.14
51083;BME280;37131;42.694;23.350;2023-05-22T05:48:53;95251.34;;;14.86;85.39
51083;BME280;37131;42.694;23.350;2023-05-22T05:51:18;95262.66;;;14.87;87.22
51083;BME280;37131;42.694;23.350;2023-05-22T05:53:45;95262.50;;;14.99;87.26
51083;BME280;37131;42.694;23.350;2023-05-22T05:56:10;95260.41;;;15.01;88.49
51083;BME280;37131;42.694;23.350;2023-05-22T05:58:35;95259.94;;;15.09;88.18
51083;BME280;37131;42.694;23.350;2023-05-22T06:01:01;95260.03;;;15.24;85.75
51083;BME280;37131;42.694;23.350;2023-05-22T06:03:26;95261.66;;;15.31;81.91
51083;BME280;37131;42.694;23.350;2023-05-22T06:05:52;95258.06;;;15.42;78.95
51083;BME280;37131;42.694;23.350;2023-05-22T06:08:17;95259.56;;;15.33;78.99
51083;BME280;37131;42.694;23.350;2023-05-22T06:10:43;95262.72;;;15.35;78.19
51083;BME280;37131;42.694;23.350;2023-05-22T06:13:09;95266.59;;;15.22;77.51
51083;BME280;37131;42.694;23.350;2023-05-22T06:15:34;95264.13;;;15.05;81.79
51083;BME280;37131;42.694;23.350;2023-05-22T06:17:59;95268.44;;;15.21;80.02
51083;BME280;37131;42.694;23.350;2023-05-22T06:20:26;95265.03;;;15.21;78.95
51083;BME280;37131;42.694;23.350;2023-05-22T06:22:51;95263.22;;;15.26;81.45
51083;BME280;37131;42.694;23.350;2023-05-22T06:25:17;95264.56;;;15.34;81.99
51083;BME280;37131;42.694;23.350;2023-05-22T06:27:43;95262.28;;;15.48;80.27
51083;BME280;37131;42.694;23.350;2023-05-22T06:30:08;95265.91;;;15.37;77.64
51083;BME280;37131;42.694;23.350;2023-05-22T06:32:33;95265.34;;;15.35;78.78
51083;BME280;37131;42.694;23.350;2023-05-22T06:34:59;95263.88;;;15.49;80.67
51083;BME280;37131;42.694;23.350;2023-05-22T06:37:24;95268.94;;;15.66;78.65
51083;BME280;37131;42.694;23.350;2023-05-22T06:39:50;95259.63;;;15.86;78.18
51083;BME280;37131;42.694;23.350;2023-05-22T06:42:15;95266.56;;;16.12;73.65
51083;BME280;37131;42.694;23.350;2023-05-22T06:44:40;95259.25;;;16.30;72.58
51083;BME280;37131;42.694;23.350;2023-05-22T06:47:05;95263.97;;;16.38;75.53
51083;BME280;37131;42.694;23.350;2023-05-22T06:49:31;95264.56;;;16.51;72.94
51083;BME280;37131;42.694;23.350;2023-05-22T06:51:56;95258.75;;;16.69;70.10
51083;BME280;37131;42.694;23.350;2023-05-22T06:54:21;95258.00;;;16.94;66.37
51083;BME280;37131;42.694;23.350;2023-05-22T06:56:47;95255.91;;;17.17;65.35
51083;BME280;37131;42.694;23.350;2023-05-22T06:59:12;95250.59;;;17.38;65.13
51083;BME280;37131;42.694;23.350;2023-05-22T07:01:38;95249.00;;;17.47;64.03
51083;BME280;37131;42.694;23.350;2023-05-22T07:04:03;95254.53;;;17.56;67.57
51083;BME280;37131;42.694;23.350;2023-05-22T07:06:33;95259.28;;;17.43;62.90
51083;BME280;37131;42.694;23.350;2023-05-22T07:09:03;95262.19;;;17.47;64.06
51083;BME280;37131;42.694;23.350;2023-05-22T07:11:29;95256.13;;;17.41;64.93
51083;BME280;37131;42.694;23.350;2023-05-22T07:13:54;95254.81;;;17.44;65.75
51083;BME280;37131;42.694;23.350;2023-05-22T07:16:20;95255.84;;;17.53;65.59
51083;BME280;37131;42.694;23.350;2023-05-22T07:18:46;95251.59;;;17.67;64.84
51083;BME280;37131;42.694;23.350;2023-05-22T07:21:11;95260.94;;;16.98;62.21
51083;BME280;37131;42.694;23.350;2023-05-22T07:23:36;95259.88;;;17.04;63.90
51083;BME280;37131;42.694;23.350;2023-05-22T07:26:02;95256.13;;;17.36;64.61
51083;BME280;37131;42.694;23.350;2023-05-22T07:28:27;95257.16;;;17.56;62.68
51083;BME280;37131;42.694;23.350;2023-05-22T07:30:54;95253.41;;;17.72;60.62
51083;BME280;37131;42.694;23.350;2023-05-22T07:34:35;95252.59;;;17.77;61.95
51083;BME280;37131;42.694;23.350;2023-05-22T07:37:06;95248.13;;;17.72;60.02
51083;BME280;37131;42.694;23.350;2023-05-22T08:13:33;95239.66;;;18.40;58.53
51083;BME280;37131;42.694;23.350;2023-05-22T08:15:58;95244.59;;;18.52;55.40
51083;BME280;37131;42.694;23.350;2023-05-22T08:18:23;95234.88;;;18.87;55.56
51083;BME280;37131;42.694;23.350;2023-05-22T08:20:51;95240.31;;;19.01;58.34
51083;BME280;37131;42.694;23.350;2023-05-22T08:23:17;95234.56;;;18.94;54.41
51083;BME280;37131;42.694;23.350;2023-05-22T08:25:43;95238.59;;;19.16;53.73
51083;BME280;37131;42.694;23.350;2023-05-22T08:28:08;95231.31;;;19.32;53.70
51083;BME280;37131;42.694;23.350;2023-05-22T08:30:33;95235.81;;;19.31;53.06
51083;BME280;37131;42.694;23.350;2023-05-22T08:33:01;95236.22;;;19.43;52.58
51083;BME280;37131;42.694;23.350;2023-05-22T08:35:26;95236.97;;;19.20;50.09
51083;BME280;37131;42.694;23.350;2023-05-22T08:37:51;95234.84;;;19.22;50.42
51083;BME280;37131;42.694;23.350;2023-05-22T08:40:17;95230.25;;;19.33;53.26
51083;BME280;37131;42.694;23.350;2023-05-22T08:42:44;95232.69;;;19.53;52.56
51083;BME280;37131;42.694;23.350;2023-05-22T08:45:09;95227.78;;;19.41;48.88
51083;BME280;37131;42.694;23.350;2023-05-22T08:47:35;95226.44;;;19.44;50.29
51083;BME280;37131;42.694;23.350;2023-05-22T08:50:01;95219.06;;;19.65;49.64
51083;BME280;37131;42.694;23.350;2023-05-22T08:52:34;95224.88;;;19.67;48.47
51083;BME280;37131;42.694;23.350;2023-05-22T08:55:02;95227.13;;;19.55;44.25
51083;BME280;37131;42.694;23.350;2023-05-22T08:57:28;95223.63;;;19.59;44.17
51083;BME280;37131;42.694;23.350;2023-05-22T08:59:54;95219.38;;;19.63;45.35
51083;BME280;37131;42.694;23.350;2023-05-22T09:02:20;95222.38;;;20.00;44.79
51083;BME280;37131;42.694;23.350;2023-05-22T09:04:45;95218.38;;;20.03;44.00
51083;BME280;37131;42.694;23.350;2023-05-22T09:07:10;95218.94;;;20.00;43.38
51083;BME280;37131;42.694;23.350;2023-05-22T09:09:38;95216.63;;;20.36;44.36
51083;BME280;37131;42.694;23.350;2023-05-22T09:12:07;95213.97;;;20.36;44.97
51083;BME280;37131;42.694;23.350;2023-05-22T09:14:37;95223.19;;;20.01;44.75
51083;BME280;37131;42.694;23.350;2023-05-22T09:17:02;95214.72;;;19.50;44.02
51083;BME280;37131;42.694;23.350;2023-05-22T09:19:29;95219.22;;;19.50;44.97
51083;BME280;37131;42.694;23.350;2023-05-22T09:22:00;95213.44;;;19.72;45.52
51083;BME280;37131;42.694;23.350;2023-05-22T09:24:26;95213.72;;;19.70;43.53
51083;BME280;37131;42.694;23.350;2023-05-22T09:26:51;95216.47;;;19.60;43.50
51083;BME280;37131;42.694;23.350;2023-05-22T09:29:16;95221.69;;;19.41;44.45
51083;BME280;37131;42.694;23.350;2023-05-22T09:31:42;95222.63;;;19.31;46.34
51083;BME280;37131;42.694;23.350;2023-05-22T09:34:08;95224.25;;;19.22;50.14
51083;BME280;37131;42.694;23.350;2023-05-22T09:36:34;95217.69;;;19.19;51.46
51083;BME280;37131;42.694;23.350;2023-05-22T09:39:00;95223.41;;;19.02;51.20
51083;BME280;37131;42.694;23.350;2023-05-22T09:41:27;95222.44;;;19.22;48.90
51083;BME280;37131;42.694;23.350;2023-05-22T09:43:52;95223.81;;;19.15;47.58
51083;BME280;37131;42.694;23.350;2023-05-22T09:46:18;95218.38;;;19.01;48.99
51083;BME280;37131;42.694;23.350;2023-05-22T09:48:43;95221.13;;;18.90;49.53
51083;BME280;37131;42.694;23.350;2023-05-22T09:51:14;95221.78;;;19.06;51.91
51083;BME280;37131;42.694;23.350;2023-05-22T09:53:40;95219.22;;;19.25;52.29
51083;BME280;37131;42.694;23.350;2023-05-22T09:56:07;95213.84;;;19.36;51.13
51083;BME280;37131;42.694;23.350;2023-05-22T09:58:36;95217.72;;;19.43;51.41
51083;BME280;37131;42.694;23.350;2023-05-22T10:01:03;95218.28;;;19.40;52.40
51083;BME280;37131;42.694;23.350;2023-05-22T10:03:29;95226.16;;;19.16;52.88
51083;BME280;37131;42.694;23.350;2023-05-22T10:05:55;95218.38;;;19.01;53.89
51083;BME280;37131;42.694;23.350;2023-05-22T10:08:23;95217.44;;;18.86;52.57
51083;BME280;37131;42.694;23.350;2023-05-22T10:10:50;95217.63;;;18.95;52.41
51083;BME280;37131;42.694;23.350;2023-05-22T10:13:17;95218.09;;;19.02;53.32
51083;BME280;37131;42.694;23.350;2023-05-22T10:15:42;95220.19;;;19.05;52.28
51083;BME280;37131;42.694;23.350;2023-05-22T10:18:08;95224.03;;;19.18;52.63
51083;BME280;37131;42.694;23.350;2023-05-22T10:20:33;95227.25;;;19.15;53.89
51083;BME280;37131;42.694;23.350;2023-05-22T10:23:00;95225.16;;;18.77;52.75
51083;BME280;37131;42.694;23.350;2023-05-22T10:25:26;95223.63;;;18.71;53.91
51083;BME280;37131;42.694;23.350;2023-05-22T10:27:51;95230.75;;;18.71;59.69
51083;BME280;37131;42.694;23.350;2023-05-22T10:30:23;95237.25;;;17.99;64.35
51083;BME280;37131;42.694;23.350;2023-05-22T10:35:42;95242.06;;;17.71;68.47
51083;BME280;37131;42.694;23.350;2023-05-22T10:40:46;95269.56;;;17.34;78.54
51083;BME280;37131;42.694;23.350;2023-05-22T10:43:12;95249.50;;;17.49;80.65
51083;BME280;37131;42.694;23.350;2023-05-22T10:45:38;95241.88;;;17.47;83.58
51083;BME280;37131;42.694;23.350;2023-05-22T10:50:30;95240.31;;;17.41;85.50
51083;BME280;37131;42.694;23.350;2023-05-22T10:55:49;95226.34;;;17.41;84.73
51083;BME280;37131;42.694;23.350;2023-05-22T10:58:15;95218.41;;;17.61;83.23
51083;BME280;37131;42.694;23.350;2023-05-22T11:00:41;95221.78;;;17.72;86.61
51083;BME280;37131;42.694;23.350;2023-05-22T11:03:06;95221.75;;;17.82;87.08
51083;BME280;37131;42.694;23.350;2023-05-22T11:05:32;95213.22;;;18.06;87.57
51083;BME280;37131;42.694;23.350;2023-05-22T11:10:54;95210.69;;;18.30;90.47
51083;BME280;37131;42.694;23.350;2023-05-22T11:13:20;95206.66;;;18.43;88.75
51083;BME280;37131;42.694;23.350;2023-05-22T11:15:45;95206.00;;;18.62;84.20
51083;BME280;37131;42.694;23.350;2023-05-22T11:18:12;95209.34;;;18.72;77.38
51083;BME280;37131;42.694;23.350;2023-05-22T11:20:38;95202.75;;;18.75;78.63
51083;BME280;37131;42.694;23.350;2023-05-22T11:23:04;95210.31;;;18.82;82.41
51083;BME280;37131;42.694;23.350;2023-05-22T11:25:31;95246.69;;;18.55;80.65
51083;BME280;37131;42.694;23.350;2023-05-22T11:27:57;95239.88;;;18.04;67.06
51083;BME280;37131;42.694;23.350;2023-05-22T11:30:26;95250.50;;;17.74;74.06
51083;BME280;37131;42.694;23.350;2023-05-22T11:32:52;95253.22;;;17.43;67.91
51083;BME280;37131;42.694;23.350;2023-05-22T11:35:18;95259.06;;;17.29;69.66
51083;BME280;37131;42.694;23.350;2023-05-22T11:37:43;95282.75;;;17.04;68.35
51083;BME280;37131;42.694;23.350;2023-05-22T11:40:09;95267.72;;;16.73;67.77
51083;BME280;37131;42.694;23.350;2023-05-22T11:42:35;95284.28;;;16.53;68.66
51083;BME280;37131;42.694;23.350;2023-05-22T11:45:01;95274.00;;;16.52;65.92
51083;BME280;37131;42.694;23.350;2023-05-22T11:47:26;95283.47;;;16.42;67.43
51083;BME280;37131;42.694;23.350;2023-05-22T11:49:53;95276.41;;;16.58;66.32
51083;BME280;37131;42.694;23.350;2023-05-22T11:52:18;95270.59;;;16.56;65.79
51083;BME280;37131;42.694;23.350;2023-05-22T11:54:44;95274.00;;;16.46;70.21
51083;BME280;37131;42.694;23.350;2023-05-22T11:57:09;95268.75;;;16.52;67.99
51083;BME280;37131;42.694;23.350;2023-05-22T11:59:35;95271.34;;;16.36;69.96
51083;BME280;37131;42.694;23.350;2023-05-22T12:02:00;95271.66;;;16.55;69.04
51083;BME280;37131;42.694;23.350;2023-05-22T12:04:26;95264.00;;;16.59;69.88
51083;BME280;37131;42.694;23.350;2023-05-22T12:06:51;95267.19;;;16.61;69.17
51083;BME280;37131;42.694;23.350;2023-05-22T12:09:17;95264.00;;;16.59;70.32
51083;BME280;37131;42.694;23.350;2023-05-22T12:11:45;95269.81;;;16.66;70.07
51083;BME280;37131;42.694;23.350;2023-05-22T12:14:11;95273.22;;;16.66;70.34
51083;BME280;37131;42.694;23.350;2023-05-22T12:16:36;95271.94;;;16.74;72.97
51083;BME280;37131;42.694;23.350;2023-05-22T12:19:08;95271.38;;;16.46;79.13
51083;BME280;37131;42.694;23.350;2023-05-22T12:21:34;95267.44;;;16.54;78.17
51083;BME280;37131;42.694;23.350;2023-05-22T12:24:03;95270.28;;;16.32;81.21
51083;BME280;37131;42.694;23.350;2023-05-22T12:26:29;95262.13;;;16.34;82.57
51083;BME280;37131;42.694;23.350;2023-05-22T12:28:55;95261.56;;;16.16;86.13
51083;BME280;37131;42.694;23.350;2023-05-22T12:31:21;95254.47;;;16.17;86.14
51083;BME280;37131;42.694;23.350;2023-05-22T12:33:46;95261.53;;;16.06;90.17
51083;BME280;37131;42.694;23.350;2023-05-22T12:36:12;95255.75;;;16.04;90.39
51083;BME280;37131;42.694;23.350;2023-05-22T12:38:37;95255.19;;;15.96;91.76
51083;BME280;37131;42.694;23.350;2023-05-22T12:41:05;95258.84;;;15.95;91.83
51083;BME280;37131;42.694;23.350;2023-05-22T12:43:30;95258.59;;;15.92;89.11
51083;BME280;37131;42.694;23.350;2023-05-22T12:45:56;95260.19;;;16.03;87.27
51083;BME280;37131;42.694;23.350;2023-05-22T12:48:21;95257.56;;;15.98;87.78
51083;BME280;37131;42.694;23.350;2023-05-22T12:50:47;95254.94;;;16.03;89.27
51083;BME280;37131;42.694;23.350;2023-05-22T12:53:12;95260.47;;;16.07;90.89
51083;BME280;37131;42.694;23.350;2023-05-22T12:55:38;95265.72;;;16.02;90.57
51083;BME280;37131;42.694;23.350;2023-05-22T12:58:04;95268.84;;;15.99;93.81
51083;BME280;37131;42.694;23.350;2023-05-22T13:00:29;95264.16;;;16.06;91.58
51083;BME280;37131;42.694;23.350;2023-05-22T13:02:54;95265.22;;;16.05;86.05
51083;BME280;37131;42.694;23.350;2023-05-22T13:05:20;95264.19;;;16.16;83.01
51083;BME280;37131;42.694;23.350;2023-05-22T13:07:45;95253.66;;;16.16;77.27
51083;BME280;37131;42.694;23.350;2023-05-22T13:10:11;95242.34;;;16.10;78.93
51083;BME280;37131;42.694;23.350;2023-05-22T13:12:37;95236.03;;;16.11;82.68
51083;BME280;37131;42.694;23.350;2023-05-22T13:15:02;95234.16;;;16.02;87.80
51083;BME280;37131;42.694;23.350;2023-05-22T13:17:28;95228.41;;;16.10;87.59
51083;BME280;37131;42.694;23.350;2023-05-22T13:19:53;95223.44;;;16.29;86.96
51083;BME280;37131;42.694;23.350;2023-05-22T13:22:19;95210.84;;;16.36;86.62
51083;BME280;37131;42.694;23.350;2023-05-22T13:24:45;95206.38;;;16.57;86.55
51083;BME280;37131;42.694;23.350;2023-05-22T13:27:10;95201.16;;;16.93;85.97
51083;BME280;37131;42.694;23.350;2023-05-22T13:29:36;95195.81;;;17.14;85.66
51083;BME280;37131;42.694;23.350;2023-05-22T13:32:01;95186.28;;;17.44;83.89
51083;BME280;37131;42.694;23.350;2023-05-22T13:34:27;95190.09;;;17.77;72.48
51083;BME280;37131;42.694;23.350;2023-05-22T13:36:52;95187.59;;;18.06;70.84
51083;BME280;37131;42.694;23.350;2023-05-22T13:39:17;95184.75;;;18.43;69.66
51083;BME280;37131;42.694;23.350;2023-05-22T13:41:43;95183.38;;;18.50;67.85
51083;BME280;37131;42.694;23.350;2023-05-22T13:44:08;95182.28;;;18.56;60.05